sensor_id;sensor_type;location;lat;lon;timestamp;temperature;humidity
49242;DHT22;35079;52.704;13.814;2023-08-06T00:00:21;17.40;99.90
49242;DHT22;35079;52.704;13.814;2023-08-06T00:02:47;17.20;99.90
49242;DHT22;35079;52.704;13.814;2023-08-06T00:05:13;17.20;99.90
49242;DHT22;35079;52.704;13.814;2023-08-06T00:07:39;17.20;99.90
49242;DHT22;35079;52.704;13.814;2023-08-06T00:10:05;17.20;99.90
49242;DHT22;35079;52.704;13.814;2023-08-06T00:12:30;17.20;99.90
49242;DHT22;35079;52.704;13.814;2023-08-06T00:14:56;17.20;99.90
49242;DHT22;35079;52.704;13.814;2023-08-06T00:17:21;17.20;99.90
49242;DHT22;35079;52.704;13.814;2023-08-06T00:19:47;17.20;99.90
49242;DHT22;35079;52.704;13.814;2023-08-06T00:22:13;17.20;99.90
49242;DHT22;35079;52.704;13.814;2023-08-06T00:24:38;17.20;99.90
49242;DHT22;35079;52.704;13.814;2023-08-06T00:27:04;17.20;99.90
49242;DHT22;35079;52.704;13.814;2023-08-06T00:29:30;17.30;99.90
49242;DHT22;35079;52.704;13.814;2023-08-06T00:31:56;17.30;99.90
49242;DHT22;35079;52.704;13.814;2023-08-06T00:34:21;17.20;99.90
49242;DHT22;35079;52.704;13.814;2023-08-06T00:36:47;17.30;99.90
49242;DHT22;35079;52.704;13.814;2023-08-06T00:39:13;17.10;99.90
49242;DHT22;35079;52.704;13.814;2023-08-06T00:41:39;17.10;99.90
49242;DHT22;35079;52.704;13.814;2023-08-06T00:44:04;17.10;99.90
49242;DHT22;35079;52.704;13.814;2023-08-06T00:46:31;17.10;99.90
49242;DHT22;35079;52.704;13.814;2023-08-06T00:48:57;17.10;99.90
49242;DHT22;35079;52.704;13.814;2023-08-06T00:51:24;17.10;99.90
49242;DHT22;35079;52.704;13.814;2023-08-06T00:53:50;17.10;99.90
49242;DHT22;35079;52.704;13.814;2023-08-06T00:56:17;17.20;99.90
49242;DHT22;35079;52.704;13.814;2023-08-06T00:58:45;17.00;99.90
49242;DHT22;35079;52.704;13.814;2023-08-06T01:01:11;17.10;99.90
49242;DHT22;35079;52.704;13.814;2023-08-06T01:03:36;16.90;99.90
49242;DHT22;35079;52.704;13.814;2023-08-06T01:06:02;16.90;99.90
49242;DHT22;35079;52.704;13.814;2023-08-06T01:08:39;17.00;99.90
49242;DHT22;35079;52.704;13.814;2023-08-06T01:13:59;17.00;99.90
49242;DHT22;35079;52.704;13.814;2023-08-06T01:16:26;17.00;99.90
49242;DHT22;35079;52.704;13.814;2023-08-06T01:18:52;17.00;99.90
49242;DHT22;35079;52.704;13.814;2023-08-06T01:21:18;16.80;99.90
49242;DHT22;35079;52.704;13.814;2023-08-06T01:23:45;16.90;99.90
49242;DHT22;35079;52.704;13.814;2023-08-06T01:26:39;16.90;99.90
49242;DHT22;35079;52.704;13.814;2023-08-06T01:31:41;16.80;99.90
49242;DHT22;35079;52.704;13.814;2023-08-06T01:34:13;16.70;99.90
49242;DHT22;35079;52.704;13.814;2023-08-06T01:36:40;16.70;99.90
49242;DHT22;35079;52.704;13.814;2023-08-06T01:39:06;16.60;99.90
49242;DHT22;35079;52.704;13.814;2023-08-06T01:41:31;16.50;99.90
49242;DHT22;35079;52.704;13.814;2023-08-06T01:43:57;16.40;99.90
49242;DHT22;35079;52.704;13.814;2023-08-06T01:46:22;16.50;99.90
49242;DHT22;35079;52.704;13.814;2023-08-06T01:48:48;16.40;99.90
49242;DHT22;35079;52.704;13.814;2023-08-06T01:51:14;16.50;99.90
49242;DHT22;35079;52.704;13.814;2023-08-06T01:53:39;16.30;99.90
49242;DHT22;35079;52.704;13.814;2023-08-06T01:56:05;16.20;99.90
49242;DHT22;35079;52.704;13.814;2023-08-06T01:58:30;16.20;99.90
49242;DHT22;35079;52.704;13.814;2023-08-06T02:00:56;16.00;99.90
49242;DHT22;35079;52.704;13.814;2023-08-06T02:03:21;16.00;99.90
49242;DHT22;35079;52.704;13.814;2023-08-06T02:05:47;16.00;99.90
49242;DHT22;35079;52.704;13.814;2023-08-06T02:08:13;16.10;99.90
49242;DHT22;35079;52.704;13.814;2023-08-06T02:10:39;16.00;99.90
49242;DHT22;35079;52.704;13.814;2023-08-06T02:13:04;16.00;99.90
49242;DHT22;35079;52.704;13.814;2023-08-06T02:15:30;16.00;99.90
49242;DHT22;35079;52.704;13.814;2023-08-06T02:17:55;16.10;99.90
49242;DHT22;35079;52.704;13.814;2023-08-06T02:20:21;16.00;99.90
49242;DHT22;35079;52.704;13.814;2023-08-06T02:22:47;16.00;99.90
49242;DHT22;35079;52.704;13.814;2023-08-06T02:25:13;16.00;99.90
49242;DHT22;35079;52.704;13.814;2023-08-06T02:27:38;15.90;99.90
49242;DHT22;35079;52.704;13.814;2023-08-06T02:30:07;15.90;99.90
49242;DHT22;35079;52.704;13.814;2023-08-06T02:32:35;16.00;99.90
49242;DHT22;35079;52.704;13.814;2023-08-06T02:35:01;15.90;99.90
49242;DHT22;35079;52.704;13.814;2023-08-06T02:37:27;15.80;99.90
49242;DHT22;35079;52.704;13.814;2023-08-06T02:39:53;15.70;99.90
49242;DHT22;35079;52.704;13.814;2023-08-06T02:42:18;15.90;99.90
49242;DHT22;35079;52.704;13.814;2023-08-06T02:44:44;15.80;99.90
49242;DHT22;35079;52.704;13.814;2023-08-06T02:47:10;15.80;99.90
49242;DHT22;35079;52.704;13.814;2023-08-06T02:49:35;15.90;99.90
49242;DHT22;35079;52.704;13.814;2023-08-06T02:52:01;16.00;99.90
49242;DHT22;35079;52.704;13.814;2023-08-06T02:54:27;15.80;99.90
49242;DHT22;35079;52.704;13.814;2023-08-06T02:56:52;16.00;99.90
49242;DHT22;35079;52.704;13.814;2023-08-06T02:59:18;15.90;99.90
49242;DHT22;35079;52.704;13.814;2023-08-06T03:01:44;15.90;99.90
49242;DHT22;35079;52.704;13.814;2023-08-06T03:04:09;15.90;99.90
49242;DHT22;35079;52.704;13.814;2023-08-06T03:06:35;15.90;99.90
49242;DHT22;35079;52.704;13.814;2023-08-06T03:09:00;16.00;99.90
49242;DHT22;35079;52.704;13.814;2023-08-06T03:11:26;15.90;99.90
49242;DHT22;35079;52.704;13.814;2023-08-06T03:13:52;15.80;99.90
49242;DHT22;35079;52.704;13.814;2023-08-06T03:16:19;15.80;99.90
49242;DHT22;35079;52.704;13.814;2023-08-06T03:18:44;15.90;99.90
49242;DHT22;35079;52.704;13.814;2023-08-06T03:21:10;15.80;99.90
49242;DHT22;35079;52.704;13.814;2023-08-06T03:23:35;15.80;99.90
49242;DHT22;35079;52.704;13.814;2023-08-06T03:26:02;15.80;99.90
49242;DHT22;35079;52.704;13.814;2023-08-06T03:28:28;15.90;99.90
49242;DHT22;35079;52.704;13.814;2023-08-06T03:31:04;15.90;99.90
49242;DHT22;35079;52.704;13.814;2023-08-06T03:33:30;15.80;99.90
49242;DHT22;35079;52.704;13.814;2023-08-06T03:35:55;15.80;99.90
49242;DHT22;35079;52.704;13.814;2023-08-06T03:38:21;15.90;99.90
49242;DHT22;35079;52.704;13.814;2023-08-06T03:40:48;15.80;99.90
49242;DHT22;35079;52.704;13.814;2023-08-06T03:43:14;15.80;99.90
49242;DHT22;35079;52.704;13.814;2023-08-06T03:45:40;15.80;99.90
49242;DHT22;35079;52.704;13.814;2023-08-06T03:48:06;15.80;99.90
49242;DHT22;35079;52.704;13.814;2023-08-06T03:50:32;15.90;99.90
49242;DHT22;35079;52.704;13.814;2023-08-06T03:52:58;15.80;99.90
49242;DHT22;35079;52.704;13.814;2023-08-06T03:55:23;15.90;99.90
49242;DHT22;35079;52.704;13.814;2023-08-06T03:57:49;15.90;99.90
49242;DHT22;35079;52.704;13.814;2023-08-06T04:00:14;15.90;99.90
49242;DHT22;35079;52.704;13.814;2023-08-06T04:02:40;15.80;99.90
49242;DHT22;35079;52.704;13.814;2023-08-06T04:05:06;15.80;99.90
49242;DHT22;35079;52.704;13.814;2023-08-06T04:07:32;15.90;99.90
49242;DHT22;35079;52.704;13.814;2023-08-06T04:09:59;16.00;99.90
49242;DHT22;35079;52.704;13.814;2023-08-06T04:12:25;16.00;99.90
49242;DHT22;35079;52.704;13.814;2023-08-06T04:14:51;15.90;99.90
49242;DHT22;35079;52.704;13.814;2023-08-06T04:17:18;15.90;99.90
49242;DHT22;35079;52.704;13.814;2023-08-06T04:19:46;15.90;99.90
49242;DHT22;35079;52.704;13.814;2023-08-06T04:22:13;15.90;99.90
49242;DHT22;35079;52.704;13.814;2023-08-06T04:24:38;16.00;99.90
49242;DHT22;35079;52.704;13.814;2023-08-06T04:27:04;15.90;99.90
49242;DHT22;35079;52.704;13.814;2023-08-06T04:29:30;16.00;99.90
49242;DHT22;35079;52.704;13.814;2023-08-06T04:31:55;16.10;99.90
49242;DHT22;35079;52.704;13.814;2023-08-06T04:34:21;16.10;99.90
49242;DHT22;35079;52.704;13.814;2023-08-06T04:36:46;16.00;99.90
49242;DHT22;35079;52.704;13.814;2023-08-06T04:39:12;16.10;99.90
49242;DHT22;35079;52.704;13.814;2023-08-06T04:41:37;16.00;99.90
49242;DHT22;35079;52.704;13.814;2023-08-06T04:44:03;16.00;99.90
49242;DHT22;35079;52.704;13.814;2023-08-06T04:46:29;16.00;99.90
49242;DHT22;35079;52.704;13.814;2023-08-06T04:48:55;15.90;99.90
49242;DHT22;35079;52.704;13.814;2023-08-06T04:51:20;16.00;99.90
49242;DHT22;35079;52.704;13.814;2023-08-06T04:53:46;15.90;99.90
49242;DHT22;35079;52.704;13.814;2023-08-06T04:56:12;15.90;99.90
49242;DHT22;35079;52.704;13.814;2023-08-06T04:58:37;15.90;99.90
49242;DHT22;35079;52.704;13.814;2023-08-06T05:01:03;16.00;99.90
49242;DHT22;35079;52.704;13.814;2023-08-06T05:03:28;15.90;99.90
49242;DHT22;35079;52.704;13.814;2023-08-06T05:05:54;16.00;99.90
49242;DHT22;35079;52.704;13.814;2023-08-06T05:08:20;16.00;99.90
49242;DHT22;35079;52.704;13.814;2023-08-06T05:10:46;16.00;99.90
49242;DHT22;35079;52.704;13.814;2023-08-06T05:13:12;16.00;99.90
49242;DHT22;35079;52.704;13.814;2023-08-06T05:15:37;16.10;99.90
49242;DHT22;35079;52.704;13.814;2023-08-06T05:18:05;16.10;99.90
49242;DHT22;35079;52.704;13.814;2023-08-06T05:20:30;16.20;99.90
49242;DHT22;35079;52.704;13.814;2023-08-06T05:22:56;16.10;99.90
49242;DHT22;35079;52.704;13.814;2023-08-06T05:25:22;16.10;99.90
49242;DHT22;35079;52.704;13.814;2023-08-06T05:27:47;16.10;99.90
49242;DHT22;35079;52.704;13.814;2023-08-06T05:30:13;16.10;99.90
49242;DHT22;35079;52.704;13.814;2023-08-06T05:32:38;16.10;99.90
49242;DHT22;35079;52.704;13.814;2023-08-06T05:35:04;16.00;99.90
49242;DHT22;35079;52.704;13.814;2023-08-06T05:37:30;16.00;99.90
49242;DHT22;35079;52.704;13.814;2023-08-06T05:39:56;16.10;99.90
49242;DHT22;35079;52.704;13.814;2023-08-06T05:42:21;16.10;99.90
49242;DHT22;35079;52.704;13.814;2023-08-06T05:44:47;16.10;99.90
49242;DHT22;35079;52.704;13.814;2023-08-06T05:47:12;16.20;99.90
49242;DHT22;35079;52.704;13.814;2023-08-06T05:49:38;16.20;99.90
49242;DHT22;35079;52.704;13.814;2023-08-06T05:52:04;16.10;99.90
49242;DHT22;35079;52.704;13.814;2023-08-06T05:54:31;16.20;99.90
49242;DHT22;35079;52.704;13.814;2023-08-06T05:56:57;16.20;99.90
49242;DHT22;35079;52.704;13.814;2023-08-06T05:59:23;16.20;99.90
49242;DHT22;35079;52.704;13.814;2023-08-06T06:01:48;16.30;99.90
49242;DHT22;35079;52.704;13.814;2023-08-06T06:04:14;16.10;99.90
49242;DHT22;35079;52.704;13.814;2023-08-06T06:06:40;16.10;99.90
49242;DHT22;35079;52.704;13.814;2023-08-06T06:09:07;16.20;99.90
49242;DHT22;35079;52.704;13.814;2023-08-06T06:11:33;16.20;99.90
49242;DHT22;35079;52.704;13.814;2023-08-06T06:13:58;16.30;99.90
49242;DHT22;35079;52.704;13.814;2023-08-06T06:16:24;16.20;99.90
49242;DHT22;35079;52.704;13.814;2023-08-06T06:18:49;16.40;99.90
49242;DHT22;35079;52.704;13.814;2023-08-06T06:21:15;16.30;99.90
49242;DHT22;35079;52.704;13.814;2023-08-06T06:23:41;16.30;99.90
49242;DHT22;35079;52.704;13.814;2023-08-06T06:26:06;16.30;99.90
49242;DHT22;35079;52.704;13.814;2023-08-06T06:28:32;16.30;99.90
49242;DHT22;35079;52.704;13.814;2023-08-06T06:31:01;16.30;99.90
49242;DHT22;35079;52.704;13.814;2023-08-06T06:33:27;16.40;99.90
49242;DHT22;35079;52.704;13.814;2023-08-06T06:35:52;16.40;99.90
49242;DHT22;35079;52.704;13.814;2023-08-06T06:38:18;16.40;99.90
49242;DHT22;35079;52.704;13.814;2023-08-06T06:40:44;16.50;99.90
49242;DHT22;35079;52.704;13.814;2023-08-06T06:43:18;16.50;99.90
49242;DHT22;35079;52.704;13.814;2023-08-06T06:45:43;16.40;99.90
49242;DHT22;35079;52.704;13.814;2023-08-06T06:48:09;16.40;99.90
49242;DHT22;35079;52.704;13.814;2023-08-06T06:50:36;16.60;99.90
49242;DHT22;35079;52.704;13.814;2023-08-06T06:53:01;16.60;99.90
49242;DHT22;35079;52.704;13.814;2023-08-06T06:55:27;16.60;99.90
49242;DHT22;35079;52.704;13.814;2023-08-06T06:57:53;16.50;99.90
49242;DHT22;35079;52.704;13.814;2023-08-06T07:00:18;16.60;99.90
49242;DHT22;35079;52.704;13.814;2023-08-06T07:02:44;16.60;99.90
49242;DHT22;35079;52.704;13.814;2023-08-06T07:05:10;16.70;99.90
49242;DHT22;35079;52.704;13.814;2023-08-06T07:07:35;16.80;99.90
49242;DHT22;35079;52.704;13.814;2023-08-06T07:10:02;16.70;99.90
49242;DHT22;35079;52.704;13.814;2023-08-06T07:12:28;16.70;99.90
49242;DHT22;35079;52.704;13.814;2023-08-06T07:14:54;16.80;99.90
49242;DHT22;35079;52.704;13.814;2023-08-06T07:17:19;16.80;99.90
49242;DHT22;35079;52.704;13.814;2023-08-06T07:19:45;16.90;99.90
49242;DHT22;35079;52.704;13.814;2023-08-06T07:22:11;16.90;99.90
49242;DHT22;35079;52.704;13.814;2023-08-06T07:24:36;16.90;99.90
49242;DHT22;35079;52.704;13.814;2023-08-06T07:27:02;17.00;99.90
49242;DHT22;35079;52.704;13.814;2023-08-06T07:29:28;16.90;99.90
49242;DHT22;35079;52.704;13.814;2023-08-06T07:31:53;17.00;99.90
49242;DHT22;35079;52.704;13.814;2023-08-06T07:34:20;17.00;99.90
49242;DHT22;35079;52.704;13.814;2023-08-06T07:36:48;17.00;99.90
49242;DHT22;35079;52.704;13.814;2023-08-06T07:39:13;17.00;99.90
49242;DHT22;35079;52.704;13.814;2023-08-06T07:41:39;17.10;99.90
49242;DHT22;35079;52.704;13.814;2023-08-06T07:44:05;17.00;99.90
49242;DHT22;35079;52.704;13.814;2023-08-06T07:46:31;17.00;99.90
49242;DHT22;35079;52.704;13.814;2023-08-06T07:48:57;17.00;99.90
49242;DHT22;35079;52.704;13.814;2023-08-06T07:51:23;17.10;99.90
49242;DHT22;35079;52.704;13.814;2023-08-06T07:53:48;17.10;99.90
49242;DHT22;35079;52.704;13.814;2023-08-06T07:56:14;17.20;99.90
49242;DHT22;35079;52.704;13.814;2023-08-06T07:58:40;17.10;99.90
49242;DHT22;35079;52.704;13.814;2023-08-06T08:01:06;17.00;99.90
49242;DHT22;35079;52.704;13.814;2023-08-06T08:03:32;17.10;99.90
49242;DHT22;35079;52.704;13.814;2023-08-06T08:05:58;17.20;99.90
49242;DHT22;35079;52.704;13.814;2023-08-06T08:08:24;17.30;99.90
49242;DHT22;35079;52.704;13.814;2023-08-06T08:10:49;17.20;99.90
49242;DHT22;35079;52.704;13.814;2023-08-06T08:13:15;17.30;99.90
49242;DHT22;35079;52.704;13.814;2023-08-06T08:15:40;17.20;99.90
49242;DHT22;35079;52.704;13.814;2023-08-06T08:18:06;17.30;99.90
49242;DHT22;35079;52.704;13.814;2023-08-06T08:20:32;17.40;99.90
49242;DHT22;35079;52.704;13.814;2023-08-06T08:22:59;17.30;99.90
49242;DHT22;35079;52.704;13.814;2023-08-06T08:25:25;17.40;99.90
49242;DHT22;35079;52.704;13.814;2023-08-06T08:27:52;17.50;99.90
49242;DHT22;35079;52.704;13.814;2023-08-06T08:30:18;17.50;99.90
49242;DHT22;35079;52.704;13.814;2023-08-06T08:32:44;17.40;99.90
49242;DHT22;35079;52.704;13.814;2023-08-06T08:35:09;17.40;99.90
49242;DHT22;35079;52.704;13.814;2023-08-06T08:37:38;17.30;99.90
49242;DHT22;35079;52.704;13.814;2023-08-06T08:40:05;17.40;99.90
49242;DHT22;35079;52.704;13.814;2023-08-06T08:42:31;17.40;99.90
49242;DHT22;35079;52.704;13.814;2023-08-06T08:44:56;17.30;99.90
49242;DHT22;35079;52.704;13.814;2023-08-06T08:47:24;17.40;99.90
49242;DHT22;35079;52.704;13.814;2023-08-06T08:49:52;17.40;99.90
49242;DHT22;35079;52.704;13.814;2023-08-06T08:52:20;17.40;99.90
49242;DHT22;35079;52.704;13.814;2023-08-06T08:54:47;17.60;99.90
49242;DHT22;35079;52.704;13.814;2023-08-06T08:57:23;17.50;99.90
49242;DHT22;35079;52.704;13.814;2023-08-06T08:59:50;17.60;99.90
49242;DHT22;35079;52.704;13.814;2023-08-06T09:02:16;17.60;99.90
49242;DHT22;35079;52.704;13.814;2023-08-06T09:04:43;17.50;99.90
49242;DHT22;35079;52.704;13.814;2023-08-06T09:07:10;17.60;99.90
49242;DHT22;35079;52.704;13.814;2023-08-06T09:09:39;17.60;99.90
49242;DHT22;35079;52.704;13.814;2023-08-06T09:12:12;17.60;99.90
49242;DHT22;35079;52.704;13.814;2023-08-06T09:14:39;17.60;99.90
49242;DHT22;35079;52.704;13.814;2023-08-06T09:17:04;17.60;99.90
49242;DHT22;35079;52.704;13.814;2023-08-06T09:19:31;17.60;99.90
49242;DHT22;35079;52.704;13.814;2023-08-06T09:21:57;17.70;99.90
49242;DHT22;35079;52.704;13.814;2023-08-06T09:24:23;17.70;99.90
49242;DHT22;35079;52.704;13.814;2023-08-06T09:26:48;17.60;99.90
49242;DHT22;35079;52.704;13.814;2023-08-06T09:29:14;17.40;99.90
49242;DHT22;35079;52.704;13.814;2023-08-06T09:31:43;17.50;99.90
49242;DHT22;35079;52.704;13.814;2023-08-06T09:36:41;17.60;99.90
49242;DHT22;35079;52.704;13.814;2023-08-06T09:39:26;17.70;99.90
49242;DHT22;35079;52.704;13.814;2023-08-06T09:41:55;17.70;99.90
49242;DHT22;35079;52.704;13.814;2023-08-06T09:44:22;17.80;99.90
49242;DHT22;35079;52.704;13.814;2023-08-06T09:46:50;17.70;99.90
49242;DHT22;35079;52.704;13.814;2023-08-06T09:49:18;17.70;99.90
49242;DHT22;35079;52.704;13.814;2023-08-06T09:51:45;17.80;99.90
49242;DHT22;35079;52.704;13.814;2023-08-06T09:54:15;17.80;99.90
49242;DHT22;35079;52.704;13.814;2023-08-06T09:56:42;17.80;99.90
49242;DHT22;35079;52.704;13.814;2023-08-06T09:59:08;17.80;99.90
49242;DHT22;35079;52.704;13.814;2023-08-06T10:01:35;17.80;99.90
49242;DHT22;35079;52.704;13.814;2023-08-06T10:04:02;17.70;99.90
49242;DHT22;35079;52.704;13.814;2023-08-06T10:06:29;17.80;99.90
49242;DHT22;35079;52.704;13.814;2023-08-06T10:08:55;17.70;99.90
49242;DHT22;35079;52.704;13.814;2023-08-06T10:11:24;17.50;99.90
49242;DHT22;35079;52.704;13.814;2023-08-06T10:13:55;17.50;99.90
49242;DHT22;35079;52.704;13.814;2023-08-06T10:16:22;17.50;99.90
49242;DHT22;35079;52.704;13.814;2023-08-06T10:18:49;17.70;99.90
49242;DHT22;35079;52.704;13.814;2023-08-06T10:21:15;17.80;99.90
49242;DHT22;35079;52.704;13.814;2023-08-06T10:23:41;17.90;99.90
49242;DHT22;35079;52.704;13.814;2023-08-06T10:26:07;17.70;99.90
49242;DHT22;35079;52.704;13.814;2023-08-06T10:28:37;17.70;99.90
49242;DHT22;35079;52.704;13.814;2023-08-06T10:31:04;17.70;99.90
49242;DHT22;35079;52.704;13.814;2023-08-06T10:33:43;17.70;99.90
49242;DHT22;35079;52.704;13.814;2023-08-06T10:36:10;17.60;99.90
49242;DHT22;35079;52.704;13.814;2023-08-06T10:38:44;17.80;99.90
49242;DHT22;35079;52.704;13.814;2023-08-06T10:41:36;17.60;99.90
49242;DHT22;35079;52.704;13.814;2023-08-06T10:44:08;17.60;99.90
49242;DHT22;35079;52.704;13.814;2023-08-06T10:46:34;17.50;99.90
49242;DHT22;35079;52.704;13.814;2023-08-06T10:49:00;17.70;99.90
49242;DHT22;35079;52.704;13.814;2023-08-06T10:51:26;17.60;99.90
49242;DHT22;35079;52.704;13.814;2023-08-06T10:53:53;17.60;99.90
49242;DHT22;35079;52.704;13.814;2023-08-06T10:56:23;17.80;99.90
49242;DHT22;35079;52.704;13.814;2023-08-06T10:58:50;17.70;99.90
49242;DHT22;35079;52.704;13.814;2023-08-06T11:01:16;17.80;99.90
49242;DHT22;35079;52.704;13.814;2023-08-06T11:03:43;17.70;99.90
49242;DHT22;35079;52.704;13.814;2023-08-06T11:06:10;17.80;99.90
49242;DHT22;35079;52.704;13.814;2023-08-06T11:08:46;17.80;99.90
49242;DHT22;35079;52.704;13.814;2023-08-06T11:11:13;17.70;99.90
49242;DHT22;35079;52.704;13.814;2023-08-06T11:13:43;17.70;99.90
49242;DHT22;35079;52.704;13.814;2023-08-06T11:16:12;17.80;99.90
49242;DHT22;35079;52.704;13.814;2023-08-06T11:18:40;17.70;99.90
49242;DHT22;35079;52.704;13.814;2023-08-06T11:21:06;17.70;99.90
49242;DHT22;35079;52.704;13.814;2023-08-06T11:23:34;17.70;99.90
49242;DHT22;35079;52.704;13.814;2023-08-06T11:26:00;17.90;99.90
49242;DHT22;35079;52.704;13.814;2023-08-06T11:28:26;17.90;99.90
49242;DHT22;35079;52.704;13.814;2023-08-06T11:30:53;18.00;99.90
49242;DHT22;35079;52.704;13.814;2023-08-06T11:33:22;18.00;99.90
49242;DHT22;35079;52.704;13.814;2023-08-06T11:35:49;18.00;99.90
49242;DHT22;35079;52.704;13.814;2023-08-06T11:38:15;18.00;99.90
49242;DHT22;35079;52.704;13.814;2023-08-06T11:40:44;18.10;99.90
49242;DHT22;35079;52.704;13.814;2023-08-06T11:43:10;18.00;99.90
49242;DHT22;35079;52.704;13.814;2023-08-06T11:45:36;18.10;99.90
49242;DHT22;35079;52.704;13.814;2023-08-06T11:48:01;18.10;99.90
49242;DHT22;35079;52.704;13.814;2023-08-06T11:50:28;18.00;99.90
49242;DHT22;35079;52.704;13.814;2023-08-06T11:52:58;18.10;99.90
49242;DHT22;35079;52.704;13.814;2023-08-06T11:55:25;18.20;99.90
49242;DHT22;35079;52.704;13.814;2023-08-06T11:57:51;18.10;99.90
49242;DHT22;35079;52.704;13.814;2023-08-06T12:00:17;18.10;99.90
49242;DHT22;35079;52.704;13.814;2023-08-06T12:02:48;18.10;99.90
49242;DHT22;35079;52.704;13.814;2023-08-06T12:05:17;18.00;99.90
49242;DHT22;35079;52.704;13.814;2023-08-06T12:07:48;18.00;99.90
49242;DHT22;35079;52.704;13.814;2023-08-06T12:10:15;18.10;99.90
49242;DHT22;35079;52.704;13.814;2023-08-06T12:12:41;18.00;99.90
49242;DHT22;35079;52.704;13.814;2023-08-06T12:15:08;18.00;99.90
49242;DHT22;35079;52.704;13.814;2023-08-06T12:17:34;17.80;99.90
49242;DHT22;35079;52.704;13.814;2023-08-06T12:20:00;17.80;99.90
49242;DHT22;35079;52.704;13.814;2023-08-06T12:22:26;17.80;99.90
49242;DHT22;35079;52.704;13.814;2023-08-06T12:24:52;17.90;99.90
49242;DHT22;35079;52.704;13.814;2023-08-06T12:27:18;17.80;99.90
49242;DHT22;35079;52.704;13.814;2023-08-06T12:29:45;17.80;99.90
49242;DHT22;35079;52.704;13.814;2023-08-06T12:32:11;17.80;99.90
49242;DHT22;35079;52.704;13.814;2023-08-06T12:34:41;17.80;99.90
49242;DHT22;35079;52.704;13.814;2023-08-06T12:37:07;17.80;99.90
49242;DHT22;35079;52.704;13.814;2023-08-06T12:39:34;17.70;99.90
49242;DHT22;35079;52.704;13.814;2023-08-06T12:42:01;17.60;99.90
49242;DHT22;35079;52.704;13.814;2023-08-06T12:44:26;17.50;99.90
49242;DHT22;35079;52.704;13.814;2023-08-06T12:46:53;17.40;99.90
49242;DHT22;35079;52.704;13.814;2023-08-06T12:49:19;17.50;99.90
49242;DHT22;35079;52.704;13.814;2023-08-06T12:51:48;17.30;99.90
49242;DHT22;35079;52.704;13.814;2023-08-06T12:54:16;17.40;99.90
49242;DHT22;35079;52.704;13.814;2023-08-06T12:56:43;17.50;99.90
49242;DHT22;35079;52.704;13.814;2023-08-06T12:59:08;17.50;99.90
49242;DHT22;35079;52.704;13.814;2023-08-06T13:01:34;17.50;99.90
49242;DHT22;35079;52.704;13.814;2023-08-06T13:04:02;17.50;99.90
49242;DHT22;35079;52.704;13.814;2023-08-06T13:06:28;17.40;99.90
49242;DHT22;35079;52.704;13.814;2023-08-06T13:08:54;17.50;99.90
49242;DHT22;35079;52.704;13.814;2023-08-06T13:11:20;17.40;99.90
49242;DHT22;35079;52.704;13.814;2023-08-06T13:13:46;17.30;99.90
49242;DHT22;35079;52.704;13.814;2023-08-06T13:16:12;17.40;99.90
49242;DHT22;35079;52.704;13.814;2023-08-06T13:18:37;17.40;99.90
49242;DHT22;35079;52.704;13.814;2023-08-06T13:21:06;17.40;99.90
49242;DHT22;35079;52.704;13.814;2023-08-06T13:23:32;17.40;99.90
49242;DHT22;35079;52.704;13.814;2023-08-06T13:25:58;17.40;99.90
49242;DHT22;35079;52.704;13.814;2023-08-06T13:28:24;17.40;99.90
49242;DHT22;35079;52.704;13.814;2023-08-06T13:30:50;17.40;99.90
49242;DHT22;35079;52.704;13.814;2023-08-06T13:33:16;17.30;99.90
49242;DHT22;35079;52.704;13.814;2023-08-06T13:35:42;17.30;99.90
49242;DHT22;35079;52.704;13.814;2023-08-06T13:38:07;17.20;99.90
49242;DHT22;35079;52.704;13.814;2023-08-06T13:40:34;17.20;99.90
49242;DHT22;35079;52.704;13.814;2023-08-06T13:43:00;17.20;99.90
49242;DHT22;35079;52.704;13.814;2023-08-06T13:45:26;17.20;99.90
49242;DHT22;35079;52.704;13.814;2023-08-06T13:47:51;17.20;99.90
49242;DHT22;35079;52.704;13.814;2023-08-06T13:50:17;17.20;99.90
49242;DHT22;35079;52.704;13.814;2023-08-06T13:52:44;17.30;99.90
49242;DHT22;35079;52.704;13.814;2023-08-06T13:55:10;17.10;99.90
49242;DHT22;35079;52.704;13.814;2023-08-06T13:57:35;17.00;99.90
49242;DHT22;35079;52.704;13.814;2023-08-06T14:00:01;17.00;99.90
49242;DHT22;35079;52.704;13.814;2023-08-06T14:02:27;16.90;99.90
49242;DHT22;35079;52.704;13.814;2023-08-06T14:04:53;17.10;99.90
49242;DHT22;35079;52.704;13.814;2023-08-06T14:07:19;17.00;99.90
49242;DHT22;35079;52.704;13.814;2023-08-06T14:09:45;17.00;99.90
49242;DHT22;35079;52.704;13.814;2023-08-06T14:12:12;17.00;99.90
49242;DHT22;35079;52.704;13.814;2023-08-06T14:14:39;17.10;99.90
49242;DHT22;35079;52.704;13.814;2023-08-06T14:17:05;17.20;99.90
49242;DHT22;35079;52.704;13.814;2023-08-06T14:19:30;17.10;99.90
49242;DHT22;35079;52.704;13.814;2023-08-06T14:21:56;17.10;99.90
49242;DHT22;35079;52.704;13.814;2023-08-06T14:24:22;17.10;99.90
49242;DHT22;35079;52.704;13.814;2023-08-06T14:26:47;17.20;99.90
49242;DHT22;35079;52.704;13.814;2023-08-06T14:29:14;17.30;99.90
49242;DHT22;35079;52.704;13.814;2023-08-06T14:31:40;17.10;99.90
49242;DHT22;35079;52.704;13.814;2023-08-06T14:34:06;16.90;99.90
49242;DHT22;35079;52.704;13.814;2023-08-06T14:36:32;17.00;99.90
49242;DHT22;35079;52.704;13.814;2023-08-06T14:38:58;16.90;99.90
49242;DHT22;35079;52.704;13.814;2023-08-06T14:41:24;16.90;99.90
49242;DHT22;35079;52.704;13.814;2023-08-06T14:43:50;16.80;99.90
49242;DHT22;35079;52.704;13.814;2023-08-06T14:46:16;16.70;99.90
49242;DHT22;35079;52.704;13.814;2023-08-06T14:48:41;16.90;99.90
49242;DHT22;35079;52.704;13.814;2023-08-06T14:51:08;16.90;99.90
49242;DHT22;35079;52.704;13.814;2023-08-06T14:53:34;17.00;99.90
49242;DHT22;35079;52.704;13.814;2023-08-06T14:55:59;17.00;99.90
49242;DHT22;35079;52.704;13.814;2023-08-06T14:58:25;16.90;99.90
49242;DHT22;35079;52.704;13.814;2023-08-06T15:00:51;17.00;99.90
49242;DHT22;35079;52.704;13.814;2023-08-06T15:03:17;17.00;99.90
49242;DHT22;35079;52.704;13.814;2023-08-06T15:05:44;16.80;99.90
49242;DHT22;35079;52.704;13.814;2023-08-06T15:08:10;16.80;99.90
49242;DHT22;35079;52.704;13.814;2023-08-06T15:10:36;16.80;99.90
49242;DHT22;35079;52.704;13.814;2023-08-06T15:13:01;16.70;99.90
49242;DHT22;35079;52.704;13.814;2023-08-06T15:15:28;16.80;99.90
49242;DHT22;35079;52.704;13.814;2023-08-06T15:17:54;16.80;99.90